createdAt,value
2017-10-23T14:34:42.972Z,994.18
2017-10-23T14:35:52.982Z,994.17
2017-10-23T14:37:03.331Z,994.16
2017-10-23T14:38:13.670Z,994.22
2017-10-23T14:39:24.010Z,994.19
2017-10-23T14:40:34.345Z,994.18
2017-10-23T14:41:44.708Z,994.2
2017-10-23T14:42:54.716Z,994.21
2017-10-23T14:44:05.068Z,994.22
2017-10-23T14:45:14.738Z,994.2
2017-10-23T14:46:24.751Z,994.2
2017-10-23T14:47:34.760Z,994.22
2017-10-23T14:48:45.101Z,994.18
2017-10-23T14:49:55.439Z,994.2
2017-10-23T14:51:05.111Z,994.23
2017-10-23T14:52:15.498Z,994.21
2017-10-23T14:53:25.835Z,994.24
2017-10-23T14:54:35.840Z,994.26
2017-10-23T14:55:46.213Z,994.25
2017-10-23T14:56:56.229Z,994.24
2017-10-23T14:58:06.239Z,994.26
2017-10-23T14:59:16.246Z,994.27
2017-10-23T15:00:26.589Z,994.27
2017-10-23T15:01:36.275Z,994.27
2017-10-23T15:02:46.287Z,994.27
2017-10-23T15:03:56.625Z,994.28
2017-10-23T15:05:06.296Z,994.25
2017-10-23T15:06:16.298Z,994.29
2017-10-23T15:07:25.966Z,994.29
2017-10-23T15:08:36.302Z,994.32
2017-10-23T15:09:46.640Z,994.34
2017-10-23T15:10:56.650Z,994.37
2017-10-23T15:12:07.001Z,994.34
2017-10-23T15:13:17.009Z,994.31
2017-10-23T15:14:27.346Z,994.32
2017-10-23T15:15:37.687Z,994.27
2017-10-23T15:16:47.692Z,994.26
2017-10-23T15:17:57.360Z,994.23
2017-10-23T15:19:07.030Z,994.26
2017-10-23T15:20:17.386Z,994.26
2017-10-23T15:21:27.725Z,994.25
2017-10-23T15:22:38.071Z,994.28
2017-10-23T15:23:48.077Z,994.26
2017-10-23T15:24:58.424Z,994.27
2017-10-23T15:26:08.145Z,994.3
2017-10-23T15:27:18.482Z,994.26
2017-10-23T15:28:28.824Z,994.26
2017-10-23T15:29:39.174Z,994.3
2017-10-23T15:30:49.533Z,994.31
2017-10-23T15:31:59.889Z,994.28
2017-10-23T15:33:09.560Z,994.26
2017-10-23T15:34:18.900Z,994.24
2017-10-23T15:35:28.908Z,994.24
2017-10-23T15:36:38.912Z,994.22
2017-10-23T15:37:49.272Z,994.26
2017-10-23T15:38:59.614Z,994.22
2017-10-23T15:40:09.952Z,994.21
2017-10-23T15:41:19.962Z,994.22
2017-10-23T15:42:30.298Z,994.28
2017-10-23T15:43:39.974Z,994.29
2017-10-23T15:44:49.976Z,994.33
2017-10-23T15:46:00.313Z,994.32
2017-10-23T15:47:10.662Z,994.35
2017-10-23T15:48:21.009Z,994.33
2017-10-23T15:49:31.019Z,994.38
2017-10-23T15:50:41.037Z,994.35
2017-10-23T15:51:51.037Z,994.36
2017-10-23T15:53:00.712Z,994.35
2017-10-23T15:54:11.052Z,994.32
2017-10-23T15:55:21.067Z,994.32
2017-10-23T15:56:31.427Z,994.31
2017-10-23T15:57:41.765Z,994.34
2017-10-23T15:58:52.120Z,994.3
2017-10-23T16:00:02.459Z,994.26
2017-10-23T16:01:12.476Z,994.22
2017-10-23T16:02:22.850Z,994.23
2017-10-23T16:03:33.187Z,994.28
2017-10-23T16:04:42.520Z,994.28
2017-10-23T16:05:52.224Z,994.31
2017-10-23T16:07:02.568Z,994.34
2017-10-23T16:08:12.585Z,994.37
2017-10-23T16:09:22.926Z,994.38
2017-10-23T16:10:32.939Z,994.39
2017-10-23T16:11:42.942Z,994.41
2017-10-23T16:12:53.284Z,994.41
2017-10-23T16:14:03.295Z,994.38
2017-10-23T16:15:13.312Z,994.39
2017-10-23T16:16:22.982Z,994.4
2017-10-23T16:17:33.328Z,994.37
2017-10-23T16:18:43.668Z,994.38
2017-10-23T16:19:53.335Z,994.42
2017-10-23T16:21:03.341Z,994.4
2017-10-23T16:22:13.679Z,994.36
2017-10-23T16:23:23.014Z,994.39
2017-10-23T16:24:33.352Z,994.4
2017-10-23T16:25:43.354Z,994.39
2017-10-23T16:26:53.368Z,994.37
2017-10-23T16:28:03.372Z,994.42
2017-10-23T16:29:13.710Z,994.42
2017-10-23T16:30:24.086Z,994.39
2017-10-23T16:31:34.434Z,994.38
2017-10-23T16:32:44.772Z,994.37
2017-10-23T16:33:55.108Z,994.45
2017-10-23T16:35:05.461Z,994.41
2017-10-23T16:36:15.804Z,994.41
2017-10-23T16:37:25.807Z,994.42
2017-10-23T16:38:35.493Z,994.42
2017-10-23T16:39:45.489Z,994.42
2017-10-23T16:40:55.829Z,994.41
2017-10-23T16:42:05.833Z,994.41
2017-10-23T16:43:15.839Z,994.43
2017-10-23T16:44:26.181Z,994.39
2017-10-23T16:45:35.858Z,994.37
2017-10-23T16:46:45.532Z,994.41
2017-10-23T16:47:55.869Z,994.42
2017-10-23T16:49:05.538Z,994.42
2017-10-23T16:50:15.210Z,994.38
2017-10-23T16:51:25.557Z,994.42
2017-10-23T16:52:35.560Z,994.44
2017-10-23T16:53:45.908Z,994.48
2017-10-23T16:54:55.911Z,994.45
2017-10-23T16:56:05.248Z,994.44
2017-10-23T16:57:15.254Z,994.44
2017-10-23T16:58:25.257Z,994.41
2017-10-23T16:59:35.597Z,994.43
2017-10-23T17:00:45.937Z,994.47
2017-10-23T17:01:55.605Z,994.46
2017-10-23T17:03:05.952Z,994.5
2017-10-23T17:04:16.307Z,994.52
2017-10-23T17:05:26.679Z,994.5
2017-10-23T17:06:37.038Z,994.52
2017-10-23T17:07:47.388Z,994.52
2017-10-23T17:08:57.745Z,994.5
2017-10-23T17:10:07.415Z,994.49
2017-10-23T17:11:17.764Z,994.46
2017-10-23T17:12:28.130Z,994.46
2017-10-23T17:13:38.485Z,994.46
2017-10-23T17:14:48.491Z,994.5
2017-10-23T17:15:58.495Z,994.49
2017-10-23T17:17:08.166Z,994.47
2017-10-23T17:18:18.519Z,994.5
2017-10-23T17:19:28.539Z,994.48
2017-10-23T17:20:38.552Z,994.51
2017-10-23T17:21:48.554Z,994.52
2017-10-23T17:22:58.901Z,994.53
2017-10-23T17:24:09.251Z,994.53
2017-10-23T17:25:18.921Z,994.53
2017-10-23T17:26:28.941Z,994.53
2017-10-23T17:27:39.278Z,994.52
2017-10-23T17:28:49.281Z,994.55
2017-10-23T17:29:59.619Z,994.56
2017-10-23T17:31:09.626Z,994.59
2017-10-23T17:32:19.300Z,994.61
2017-10-23T17:33:28.974Z,994.68
2017-10-23T17:34:39.309Z,994.66
2017-10-23T17:35:48.987Z,994.66
2017-10-23T17:36:59.322Z,994.67
2017-10-23T17:38:09.326Z,994.62
2017-10-23T17:39:19.370Z,994.61
2017-10-23T17:40:29.038Z,994.64
2017-10-23T17:41:39.387Z,994.62
2017-10-23T17:42:49.064Z,994.67
2017-10-23T17:43:59.072Z,994.65
2017-10-23T17:45:09.077Z,994.65
2017-10-23T17:46:19.083Z,994.67
2017-10-23T17:47:29.421Z,994.66
2017-10-23T17:48:39.435Z,994.66
2017-10-23T17:49:49.771Z,994.67
2017-10-23T17:51:00.110Z,994.69
2017-10-23T17:52:09.446Z,994.7
2017-10-23T17:53:19.121Z,994.72
2017-10-23T17:54:28.794Z,994.75
2017-10-23T17:55:38.798Z,994.75
2017-10-23T17:56:48.476Z,994.8
2017-10-23T17:57:58.812Z,994.82
2017-10-23T17:59:09.161Z,994.82
2017-10-23T18:00:19.512Z,994.79
2017-10-23T18:01:29.851Z,994.78
2017-10-23T18:02:39.859Z,994.77
2017-10-23T18:03:49.863Z,994.81
2017-10-23T18:04:59.868Z,994.81
2017-10-23T18:06:10.206Z,994.79
2017-10-23T18:07:20.548Z,994.81
2017-10-23T18:08:30.892Z,994.83
2017-10-23T18:09:40.563Z,994.77
2017-10-23T18:10:50.925Z,994.8
2017-10-23T18:12:01.260Z,994.77
2017-10-23T18:13:11.601Z,994.74
2017-10-23T18:14:21.603Z,994.73
2017-10-23T18:15:31.946Z,994.72
2017-10-23T18:16:41.948Z,994.73
2017-10-23T18:17:52.285Z,994.73
2017-10-23T18:19:02.296Z,994.7
2017-10-23T18:20:12.302Z,994.69
2017-10-23T18:21:22.304Z,994.73
2017-10-23T18:22:32.308Z,994.72
2017-10-23T18:23:42.315Z,994.74
2017-10-23T18:24:51.986Z,994.73
2017-10-23T18:26:02.327Z,994.72
2017-10-23T18:27:11.996Z,994.73
2017-10-23T18:28:22.004Z,994.72
2017-10-23T18:29:32.353Z,994.71
2017-10-23T18:30:42.359Z,994.69
2017-10-23T18:31:52.369Z,994.71
2017-10-23T18:33:02.375Z,994.74
2017-10-23T18:34:12.388Z,994.74
2017-10-23T18:35:21.722Z,994.75
2017-10-23T18:36:32.062Z,994.72
2017-10-23T18:37:42.412Z,994.76
2017-10-23T18:38:52.752Z,994.75
2017-10-23T18:40:03.391Z,994.76
2017-10-23T18:41:13.749Z,994.77
2017-10-23T18:42:23.756Z,994.76
2017-10-23T18:43:34.097Z,994.75
2017-10-23T18:44:44.440Z,994.76
2017-10-23T18:45:56.780Z,994.74
2017-10-23T18:47:06.788Z,994.7
2017-10-23T18:48:17.126Z,994.7
2017-10-23T18:49:27.137Z,994.63
2017-10-23T18:50:36.806Z,994.56
2017-10-23T18:51:47.142Z,994.51
2017-10-23T18:52:57.480Z,994.46
2017-10-23T18:54:07.146Z,994.46
2017-10-23T18:55:17.146Z,994.49
2017-10-23T18:56:27.160Z,994.51
2017-10-23T18:57:37.168Z,994.52
2017-10-23T18:58:47.178Z,994.52
2017-10-23T18:59:57.179Z,994.54
2017-10-23T19:01:07.198Z,994.57
2017-10-23T19:02:17.538Z,994.58
2017-10-23T19:03:27.880Z,994.57
2017-10-23T19:04:37.213Z,994.51
2017-10-23T19:05:47.227Z,994.51
2017-10-23T19:06:57.247Z,994.52
2017-10-23T19:08:07.588Z,994.52
2017-10-23T19:09:17.594Z,994.52
2017-10-23T19:10:26.927Z,994.53
2017-10-23T19:11:37.287Z,994.54
2017-10-23T19:12:47.629Z,994.57
2017-10-23T19:13:57.631Z,994.58
2017-10-23T19:15:07.631Z,994.59
2017-10-23T19:16:17.639Z,994.59
2017-10-23T19:17:27.975Z,994.51
2017-10-23T19:18:38.328Z,994.51
2017-10-23T19:19:48.671Z,994.52
2017-10-23T19:20:59.011Z,994.52
2017-10-23T19:22:09.352Z,994.54
2017-10-23T19:23:19.360Z,994.51
2017-10-23T19:24:29.697Z,994.53
2017-10-23T19:25:39.375Z,994.54
2017-10-23T19:26:49.724Z,994.53
2017-10-23T19:27:59.724Z,994.51
2017-10-23T19:29:09.730Z,994.5
2017-10-23T19:30:20.075Z,994.55
2017-10-23T19:31:30.080Z,994.54
2017-10-23T19:32:40.390Z,994.52
2017-10-23T19:33:50.420Z,994.57
2017-10-23T19:35:00.764Z,994.56
2017-10-23T19:36:10.098Z,994.61
2017-10-23T19:37:20.436Z,994.66
2017-10-23T19:38:30.445Z,994.68
2017-10-23T19:39:40.453Z,994.65
2017-10-23T19:40:50.461Z,994.68
2017-10-23T19:42:00.462Z,994.66
2017-10-23T19:43:10.463Z,994.67
2017-10-23T19:44:20.464Z,994.65
2017-10-23T19:45:30.801Z,994.65
2017-10-23T19:46:40.480Z,994.64
2017-10-23T19:47:50.818Z,994.68
2017-10-23T19:49:00.818Z,994.69
2017-10-23T19:50:10.153Z,994.67
2017-10-23T19:51:20.155Z,994.69
2017-10-23T19:52:30.165Z,994.67
2017-10-23T19:53:40.503Z,994.63
2017-10-23T19:54:50.851Z,994.61
2017-10-23T19:56:01.196Z,994.59
2017-10-23T19:57:10.864Z,994.62
2017-10-23T19:58:20.867Z,994.61
2017-10-23T19:59:30.876Z,994.59
2017-10-23T20:00:41.223Z,994.59
2017-10-23T20:01:53.574Z,994.6
2017-10-23T20:03:03.924Z,994.54
2017-10-23T20:04:14.266Z,994.58
2017-10-23T20:05:24.272Z,994.58
2017-10-23T20:06:34.615Z,994.56
2017-10-23T20:07:44.617Z,994.56
2017-10-23T20:08:54.617Z,994.58
2017-10-23T20:10:04.622Z,994.58
2017-10-23T20:11:14.961Z,994.56
2017-10-23T20:12:25.308Z,994.59
2017-10-23T20:13:37.317Z,994.6
2017-10-23T20:14:47.672Z,994.62
2017-10-23T20:15:58.010Z,994.59
2017-10-23T20:17:07.695Z,994.61
2017-10-23T20:18:18.040Z,994.6
2017-10-23T20:19:28.386Z,994.58
2017-10-23T20:20:38.385Z,994.62
2017-10-23T20:21:48.720Z,994.59
2017-10-23T20:22:59.059Z,994.63
2017-10-23T20:24:09.402Z,994.67
2017-10-23T20:25:21.411Z,994.6
2017-10-23T20:26:31.765Z,994.66
2017-10-23T20:27:42.101Z,994.68
2017-10-23T20:28:51.770Z,994.69
2017-10-23T20:30:02.111Z,994.7
2017-10-23T20:31:12.449Z,994.67
2017-10-23T20:32:22.461Z,994.68
2017-10-23T20:33:32.461Z,994.69
2017-10-23T20:34:42.465Z,994.7
2017-10-23T20:35:52.812Z,994.73
2017-10-23T20:37:03.149Z,994.75
2017-10-23T20:38:13.491Z,994.72
2017-10-23T20:39:23.825Z,994.74
2017-10-23T20:40:33.837Z,994.7
2017-10-23T20:41:44.178Z,994.7
2017-10-23T20:42:54.186Z,994.68
2017-10-23T20:44:04.529Z,994.7
2017-10-23T20:45:14.531Z,994.68
2017-10-23T20:46:24.870Z,994.68
2017-10-23T20:47:35.207Z,994.69
2017-10-23T20:48:45.552Z,994.64
2017-10-23T20:49:55.557Z,994.71
2017-10-23T20:51:05.902Z,994.67
2017-10-23T20:52:16.239Z,994.72
2017-10-23T20:53:26.587Z,994.67
2017-10-23T20:54:36.584Z,994.7
2017-10-23T20:55:46.248Z,994.66
2017-10-23T20:56:56.599Z,994.71
2017-10-23T20:58:06.278Z,994.68
2017-10-23T20:59:16.280Z,994.67
2017-10-23T21:00:26.613Z,994.65
2017-10-23T21:01:36.632Z,994.66
2017-10-23T21:02:46.655Z,994.66
2017-10-23T21:03:56.993Z,994.67
2017-10-23T21:05:06.994Z,994.7
2017-10-23T21:06:17.338Z,994.66
2017-10-23T21:07:27.680Z,994.66
2017-10-23T21:08:38.041Z,994.69
2017-10-23T21:09:48.384Z,994.69
2017-10-23T21:10:58.727Z,994.7
2017-10-23T21:12:09.063Z,994.7
2017-10-23T21:13:19.074Z,994.69
2017-10-23T21:14:29.081Z,994.68
2017-10-23T21:15:38.760Z,994.64
2017-10-23T21:16:49.103Z,994.7
2017-10-23T21:17:59.107Z,994.69
2017-10-23T21:19:09.111Z,994.71
2017-10-23T21:20:18.444Z,994.67
2017-10-23T21:21:28.445Z,994.67
2017-10-23T21:22:38.793Z,994.65
2017-10-23T21:23:49.139Z,994.64
2017-10-23T21:24:59.479Z,994.61
2017-10-23T21:26:09.814Z,994.62
2017-10-23T21:27:20.153Z,994.62
2017-10-23T21:28:30.154Z,994.63
2017-10-23T21:29:40.154Z,994.62
2017-10-23T21:30:50.168Z,994.63
2017-10-23T21:32:00.174Z,994.67
2017-10-23T21:33:10.510Z,994.62
2017-10-23T21:34:20.534Z,994.6
2017-10-23T21:35:30.208Z,994.59
2017-10-23T21:36:40.213Z,994.6
2017-10-23T21:37:50.562Z,994.62
2017-10-23T21:39:00.562Z,994.6
2017-10-23T21:40:10.901Z,994.67
2017-10-23T21:41:21.237Z,994.67
2017-10-23T21:42:31.241Z,994.63
2017-10-23T21:43:41.257Z,994.66
2017-10-23T21:44:51.262Z,994.63
2017-10-23T21:46:01.289Z,994.58
2017-10-23T21:47:11.639Z,994.63
2017-10-23T21:48:21.985Z,994.59
2017-10-23T21:49:31.991Z,994.63
2017-10-23T21:50:42.002Z,994.57
2017-10-23T21:51:52.005Z,994.61
2017-10-23T21:53:01.692Z,994.61
2017-10-23T21:54:12.037Z,994.58
2017-10-23T21:55:22.373Z,994.59
2017-10-23T21:56:32.726Z,994.57
2017-10-23T21:57:43.077Z,994.6
2017-10-23T21:58:53.414Z,994.66
2017-10-23T22:00:03.417Z,994.63
2017-10-23T22:01:12.748Z,994.63
2017-10-23T22:02:23.101Z,994.63
2017-10-23T22:03:32.772Z,994.64
2017-10-23T22:04:42.772Z,994.66
2017-10-23T22:05:52.441Z,994.65
2017-10-23T22:07:02.109Z,994.69
2017-10-23T22:08:11.779Z,994.64
2017-10-23T22:09:21.780Z,994.6
2017-10-23T22:10:31.792Z,994.61
2017-10-23T22:11:42.130Z,994.61
2017-10-23T22:12:52.151Z,994.62
2017-10-23T22:14:02.204Z,994.62
2017-10-23T22:15:12.217Z,994.61
2017-10-23T22:16:22.225Z,994.55
2017-10-23T22:17:32.236Z,994.57
2017-10-23T22:18:42.573Z,994.56
2017-10-23T22:19:52.577Z,994.51
2017-10-23T22:21:02.586Z,994.49
2017-10-23T22:22:12.587Z,994.52
2017-10-23T22:23:22.933Z,994.53
2017-10-23T22:24:33.272Z,994.48
2017-10-23T22:25:43.287Z,994.48
2017-10-23T22:26:53.636Z,994.46
2017-10-23T22:28:03.972Z,994.48
2017-10-23T22:29:14.332Z,994.45
2017-10-23T22:30:24.674Z,994.48
2017-10-23T22:31:35.013Z,994.46
2017-10-23T22:32:45.361Z,994.5
2017-10-23T22:33:55.712Z,994.48
2017-10-23T22:35:06.053Z,994.48
2017-10-23T22:36:16.397Z,994.4
2017-10-23T22:37:26.737Z,994.4
2017-10-23T22:38:37.081Z,994.36
2017-10-23T22:39:47.424Z,994.35
2017-10-23T22:40:57.761Z,994.35
2017-10-23T22:42:07.775Z,994.38
2017-10-23T22:43:17.441Z,994.35
2017-10-23T22:44:27.443Z,994.34
2017-10-23T22:45:37.113Z,994.3
2017-10-23T22:46:47.123Z,994.33
2017-10-23T22:47:57.132Z,994.32
2017-10-23T22:49:07.504Z,994.32
2017-10-23T22:50:17.844Z,994.26
2017-10-23T22:51:27.857Z,994.23
2017-10-23T22:52:38.202Z,994.15
2017-10-23T22:53:48.543Z,994.15
2017-10-23T22:54:58.891Z,994.15
2017-10-23T22:56:08.899Z,994.2
2017-10-23T22:57:18.233Z,994.2
2017-10-23T22:58:28.572Z,994.19
2017-10-23T22:59:37.566Z,994.16
2017-10-23T23:00:47.568Z,994.11
2017-10-23T23:01:57.572Z,994.12
2017-10-23T23:03:07.579Z,994.08
2017-10-23T23:04:17.925Z,994.12
2017-10-23T23:05:28.268Z,994.14
2017-10-23T23:06:38.273Z,994.12
2017-10-23T23:07:48.610Z,994.12
2017-10-23T23:08:58.614Z,994.11
2017-10-23T23:10:08.959Z,994.15
2017-10-23T23:11:19.300Z,994.21
2017-10-23T23:12:29.307Z,994.22
2017-10-23T23:13:39.312Z,994.22
2017-10-23T23:14:49.656Z,994.2
2017-10-23T23:15:59.657Z,994.2
2017-10-23T23:17:10.003Z,994.22
2017-10-23T23:18:20.340Z,994.23
2017-10-23T23:19:30.685Z,994.25
2017-10-23T23:20:41.034Z,994.26
2017-10-23T23:21:51.384Z,994.29
2017-10-23T23:23:01.735Z,994.27
2017-10-23T23:24:12.078Z,994.28
2017-10-23T23:25:22.424Z,994.36
2017-10-23T23:26:32.097Z,994.34
2017-10-23T23:27:42.100Z,994.29
2017-10-23T23:28:52.440Z,994.28
2017-10-23T23:30:02.444Z,994.29
2017-10-23T23:31:12.461Z,994.3
2017-10-23T23:32:22.801Z,994.28
2017-10-23T23:33:33.142Z,994.28
2017-10-23T23:34:43.482Z,994.33
2017-10-23T23:35:53.819Z,994.32
2017-10-23T23:37:03.487Z,994.27
2017-10-23T23:38:13.156Z,994.31
2017-10-23T23:39:23.496Z,994.37
2017-10-23T23:40:33.849Z,994.39
2017-10-23T23:41:44.186Z,994.34
2017-10-23T23:42:54.190Z,994.34
2017-10-23T23:44:04.543Z,994.27
2017-10-23T23:45:14.542Z,994.28
2017-10-23T23:46:23.877Z,994.26
2017-10-23T23:47:33.548Z,994.31
2017-10-23T23:48:43.917Z,994.27
2017-10-23T23:49:54.256Z,994.23
2017-10-23T23:51:04.598Z,994.25
2017-10-23T23:52:14.601Z,994.28
2017-10-23T23:53:24.610Z,994.29
2017-10-23T23:54:34.609Z,994.27
2017-10-23T23:55:44.278Z,994.25
2017-10-23T23:56:54.286Z,994.22
2017-10-23T23:58:04.636Z,994.19
2017-10-23T23:59:14.643Z,994.19
